Rize — 9HA2781 — position and weather

sailwx.info

Track history (hours):
 
Tides and Currents Weather Stations Pressure Air Temp Water Temp Dewpoint Dewpoint Depression Visibility Wind Speed Wind Dir Waves Ship Positions

Rize

Last reported at 2014-Aug-19 16:16 UTC. Time now 2014-Sep-30 10:20 UTC.
Position N 32°00' W 010°00'.
Warning: this ship's position is 41 days out of date.

Length 229 m; draft 12.5 m.

Type: Cargo ship. MMSI: 215677000.

Date/timePositionNaut miles runAvg speedWind from/ knotsBaromVisibWave heightAir tempDewpointWater temp
2014-Aug-19 16:16N 32°00' W 010°00'1013.3
2014-Aug-19 15:33N 32°09' W 009°56'1913.2
2014-Aug-19 14:08N 32°27' W 009°49'  
2014-Aug-16 05:16N 35°15' W 009°51'710.4
2014-Aug-16 04:33N 35°22' W 009°53'3110.4
2014-Aug-16 01:33N 35°53' W 010°02'  
2014-Aug-11 18:12N 50°14' W 001°41'14 8.2
2014-Aug-11 16:33N 50°18' W 001°20'1110.9
2014-Aug-11 15:33N 50°20' W 001°04'1211.6
2014-Aug-11 14:33N 50°23' W 000°46'1111.0
2014-Aug-11 13:33N 50°27' W 000°30'1010.0
2014-Aug-11 12:33N 50°29' W 000°15'9 8.8
2014-Aug-11 11:33N 50°32' W 000°02'8 7.6
2014-Aug-11 10:33N 50°34' E 000°10'7 6.7
2014-Aug-11 09:33N 50°36' E 000°20'6 6.2
2014-Aug-11 08:33N 50°37' E 000°30'7 7.2
2014-Aug-11 07:33N 50°41' E 000°40'9 8.9
2014-Aug-11 06:33N 50°46' E 000°51'1110.6
2014-Aug-11 05:33N 50°52' E 001°05'1010.5
2014-Aug-11 04:33N 50°59' E 001°17'9 9.1
2014-Aug-11 03:33N 51°05' E 001°28'7 7.0
2014-Aug-11 02:34N 51°09' E 001°37'6 5.6
2014-Aug-11 01:33N 51°13' E 001°44'5 5.2
2014-Aug-11 00:33N 51°17' E 001°49'6 5.9
2014-Aug-10 23:33N 51°22' E 001°53'7 6.6
2014-Aug-10 22:34N 51°28' E 001°58'8 8.4
2014-Aug-10 21:33N 51°34' E 002°07'84 8.1
2014-Aug-10 11:06N 52°40' E 003°34'1110.9
2014-Aug-10 10:04N 52°48' E 003°46'611.2
2014-Aug-10 09:33N 52°53' E 003°52'1311.3
2014-Aug-10 08:24N 53°02' E 004°07'1211.2
2014-Aug-10 07:21N 53°09' E 004°22'  
Track history (hours):
 
Tides and Currents Weather Stations Pressure Air Temp Water Temp Dewpoint Dewpoint Depression Visibility Wind Speed Wind Dir Waves Ship Positions

Rize

Last reported at 2014-Aug-19 16:16 UTC. Time now 2014-Sep-30 10:20 UTC.
Position N 32°00' W 010°00'.
Warning: this ship's position is 41 days out of date.

Length 229 m; draft 12.5 m.

Type: Cargo ship. MMSI: 215677000.

Date/timePositionNaut miles runAvg speedWind from/ knotsBaromVisibWave heightAir tempDewpointWater temp
2014-Aug-19 16:16N 32°00' W 010°00'1013.3
2014-Aug-19 15:33N 32°09' W 009°56'1913.2
2014-Aug-19 14:08N 32°27' W 009°49'  
2014-Aug-16 05:16N 35°15' W 009°51'710.4
2014-Aug-16 04:33N 35°22' W 009°53'3110.4
2014-Aug-16 01:33N 35°53' W 010°02'  
2014-Aug-11 18:12N 50°14' W 001°41'14 8.2
2014-Aug-11 16:33N 50°18' W 001°20'1110.9
2014-Aug-11 15:33N 50°20' W 001°04'1211.6
2014-Aug-11 14:33N 50°23' W 000°46'1111.0
2014-Aug-11 13:33N 50°27' W 000°30'1010.0
2014-Aug-11 12:33N 50°29' W 000°15'9 8.8
2014-Aug-11 11:33N 50°32' W 000°02'8 7.6
2014-Aug-11 10:33N 50°34' E 000°10'7 6.7
2014-Aug-11 09:33N 50°36' E 000°20'6 6.2
2014-Aug-11 08:33N 50°37' E 000°30'7 7.2
2014-Aug-11 07:33N 50°41' E 000°40'9 8.9
2014-Aug-11 06:33N 50°46' E 000°51'1110.6
2014-Aug-11 05:33N 50°52' E 001°05'1010.5
2014-Aug-11 04:33N 50°59' E 001°17'9 9.1
2014-Aug-11 03:33N 51°05' E 001°28'7 7.0
2014-Aug-11 02:34N 51°09' E 001°37'6 5.6
2014-Aug-11 01:33N 51°13' E 001°44'5 5.2
2014-Aug-11 00:33N 51°17' E 001°49'6 5.9
2014-Aug-10 23:33N 51°22' E 001°53'7 6.6
2014-Aug-10 22:34N 51°28' E 001°58'8 8.4
2014-Aug-10 21:33N 51°34' E 002°07'84 8.1
2014-Aug-10 11:06N 52°40' E 003°34'1110.9
2014-Aug-10 10:04N 52°48' E 003°46'611.2
2014-Aug-10 09:33N 52°53' E 003°52'1311.3
2014-Aug-10 08:24N 53°02' E 004°07'1211.2
2014-Aug-10 07:21N 53°09' E 004°22'  

Dump ship's entire track history